Amoret, Missouri
Current Conditions -  °F | °C
As of 3:53 PM on Saturday 25 Oct 2014 (Local Time) from KOJC Reporting Station
Clear Clear  
Wind Chill: 81°   Ceiling: Unl
Heat Index: 81°   Visibility: 10mi
Dew Point: 59°   Wind: 5mph
Humidity: 47%   Direction: 110°ESE
Pressure: 30.02"   Gusts: NA
Location:  38.26°N, 94.59°W
Report Text: KOJC 252053Z 11004KT 10SM CLR 27/15 A3002 RMK AO2 SLP156 T02720150 56013
Loading
Personal Weather Stations






























Interactive Weather Map New forecast layout! Learn more

10-Day Weather Forecast

Advertisements
Track Severe Weather on mobile